Portada
METAR-TAF:

METAR-TAF

Aeroports :

Rouen, França

latitud: 49-23N, longitud: 001-11E, altitud: 157 m

Observació

L'informe es va fer fa 18 minuts, a les 12:00 UTC
Vent 4 kt del Sud-Est
Temperatura 2°C
Humitat 100%
Pressió 1020 hPa
Visibilitat: 0400 m
boira

METAR: LFOP 251200Z AUTO 14004KT 0450 0400 R22/0550N FG VV/// 02/02 Q1020 TEMPO 2000 BR

Hora: 13:18 (12:18 UTC)

Pronòstic

L'informe es va fer fa 1 hora i 18 minuts, a les 11:00 UTC
Pronòstic vàlid del 25 a les 12 UTC al 26 a les 12 UTC
Vent 8 kt del Sud/Sud-Est
Visibilitat: 0500 m
boira
Temporalment
l' 25 a les 12 UTC al 25 a les 19 UTC
Visibilitat: 2000 m
boirina
Temporalment
l' 25 a les 19 UTC al 26 a les 12 UTC
Visibilitat: 1200 m
boirina

TAF: LFOP 251100Z 2512/2612 15008KT 0500 FG VV/// TEMPO 2512/2519 2000 BR NSC TEMPO 2519/2612 1200 BR

Observacions i pronòstics meteorològics de més de 4000 aeroports (METAR i TAF).

Les estacions disponibles són els punts grocs i vermells al mapa.

Posi el ratolí al punt desitjat per veure el nom de l'estació.

Feu clic per veure les observacions i els pronòstics meteorològics.

Per canviar el mapa: feu clic els botons verds amb una creu de color negre per apropar; al botó verd amb un guió per allunyar la imatge; o en les fletxes verdes per a mapes adjacents.


METAR-TAF: